createdAt,value
2019-03-15T00:02:32.308Z,98569.88
2019-03-15T00:07:37.088Z,98588.72
2019-03-15T00:13:12.403Z,98577.95
2019-03-15T00:18:16.995Z,98612.75
2019-03-15T00:23:21.276Z,98619.91
2019-03-15T00:28:25.640Z,98619.80
2019-03-15T00:33:29.980Z,98622.08
2019-03-15T00:38:34.224Z,98621.16
2019-03-15T00:43:38.487Z,98621.16
2019-03-15T00:48:42.584Z,98633.50
2019-03-15T00:53:47.073Z,98632.46
2019-03-15T00:58:51.343Z,98637.27
2019-03-15T01:03:55.389Z,98638.88
2019-03-15T01:08:59.507Z,98638.88
2019-03-15T01:14:03.851Z,98654.75
2019-03-15T01:19:08.086Z,98663.46
2019-03-15T01:24:12.177Z,98639.56
2019-03-15T01:29:16.241Z,98658.80
2019-03-15T01:34:20.281Z,98658.80
2019-03-15T01:39:24.453Z,98670.98
2019-03-15T01:44:28.710Z,98671.33
2019-03-15T01:49:33.552Z,98677.81
2019-03-15T01:54:37.925Z,98682.99
2019-03-15T01:59:42.112Z,98672.72
2019-03-15T02:04:46.144Z,98693.81
2019-03-15T02:09:50.213Z,98696.64
2019-03-15T02:14:54.264Z,98706.17
2019-03-15T02:19:58.434Z,98706.17
2019-03-15T02:25:02.929Z,98706.73
2019-03-15T02:30:07.089Z,98707.14
2019-03-15T02:35:11.380Z,98698.88
2019-03-15T02:40:15.569Z,98698.88
2019-03-15T02:45:19.750Z,98719.94
2019-03-15T02:50:23.951Z,98730.30
2019-03-15T02:55:28.161Z,98745.72
2019-03-15T03:00:32.288Z,98745.72
2019-03-15T03:05:36.457Z,98742.09
2019-03-15T03:10:40.575Z,98742.09
2019-03-15T03:15:45.010Z,98754.73
2019-03-15T03:20:49.209Z,98758.32
2019-03-15T03:25:53.525Z,98764.69
2019-03-15T03:30:57.794Z,98764.69
2019-03-15T03:36:01.900Z,98770.95
2019-03-15T03:41:06.003Z,98765.48
2019-03-15T03:46:10.141Z,98771.49
2019-03-15T03:51:14.359Z,98780.02
2019-03-15T03:56:18.916Z,98775.63
2019-03-15T04:01:23.547Z,98775.63
2019-03-15T04:06:27.846Z,98784.69
2019-03-15T04:11:31.853Z,98793.63
2019-03-15T04:16:36.080Z,98795.26
2019-03-15T04:21:40.176Z,98795.26
2019-03-15T04:26:44.273Z,98807.95
2019-03-15T04:31:48.411Z,98805.90
2019-03-15T04:36:52.544Z,98812.75
2019-03-15T04:41:57.084Z,98818.69
2019-03-15T04:47:01.450Z,98795.59
2019-03-15T04:52:06.152Z,98823.00
2019-03-15T04:57:13.368Z,98817.81
2019-03-15T05:02:17.686Z,98817.81
2019-03-15T05:07:22.063Z,98834.80
2019-03-15T05:12:26.143Z,98836.14
2019-03-15T05:17:30.345Z,98859.50
2019-03-15T05:22:34.485Z,98845.05
2019-03-15T05:27:38.781Z,98860.84
2019-03-15T05:32:43.012Z,98848.97
2019-03-15T05:37:47.249Z,98869.56
2019-03-15T05:42:51.458Z,98863.27
2019-03-15T05:47:55.603Z,98863.90
2019-03-15T05:52:59.906Z,98872.77
2019-03-15T05:58:04.225Z,98868.00
2019-03-15T06:03:08.420Z,98853.41
2019-03-15T06:08:12.563Z,98868.77
2019-03-15T06:13:16.895Z,98868.77
2019-03-15T06:18:21.297Z,98876.58
2019-03-15T06:23:25.591Z,98876.58
2019-03-15T06:28:30.073Z,98892.80
2019-03-15T06:33:34.476Z,98894.27
2019-03-15T06:38:38.823Z,98897.45
2019-03-15T06:43:43.116Z,98905.39
2019-03-15T06:48:47.464Z,98908.08
2019-03-15T06:53:51.746Z,98905.75
2019-03-15T06:58:55.992Z,98905.75
2019-03-15T07:04:00.259Z,98896.22
2019-03-15T07:09:05.384Z,98891.23
2019-03-15T07:14:09.544Z,98891.23
2019-03-15T07:19:25.491Z,98895.34
2019-03-15T07:24:25.137Z,98893.15
2019-03-15T07:29:25.771Z,98906.33
2019-03-15T07:34:30.000Z,98906.33
2019-03-15T07:39:34.192Z,98905.02
2019-03-15T07:44:38.864Z,98896.24
2019-03-15T07:49:43.176Z,98896.24
2019-03-15T07:54:47.473Z,98885.17
2019-03-15T07:59:51.694Z,98898.92
2019-03-15T08:04:56.033Z,98906.02
2019-03-15T08:10:02.321Z,98899.77
2019-03-15T08:15:06.894Z,98899.77
2019-03-15T08:20:11.367Z,98892.02
2019-03-15T08:25:15.740Z,98894.73
2019-03-15T08:30:19.927Z,98880.98
2019-03-15T08:35:24.666Z,98890.49
2019-03-15T08:40:28.975Z,98879.94
2019-03-15T08:45:33.055Z,98893.14
2019-03-15T08:50:37.081Z,98893.14
2019-03-15T08:55:41.196Z,98899.59
2019-03-15T09:00:45.224Z,98934.59
2019-03-15T09:05:49.952Z,98923.73
2019-03-15T09:10:54.255Z,98934.34
2019-03-15T09:15:58.354Z,98908.20
2019-03-15T09:21:02.373Z,98901.53
2019-03-15T09:26:40.740Z,98901.53
2019-03-15T09:31:48.121Z,98887.51
2019-03-15T09:36:50.686Z,98861.28
2019-03-15T09:41:54.776Z,98877.20
2019-03-15T09:47:02.262Z,98854.06
2019-03-15T09:52:04.707Z,98878.09
2019-03-15T09:57:08.777Z,98851.27
2019-03-15T10:02:12.950Z,98851.27
2019-03-15T10:07:17.100Z,98862.58
2019-03-15T10:12:21.299Z,98840.58
2019-03-15T10:17:25.372Z,98836.43
2019-03-15T10:22:29.377Z,98836.43
2019-03-15T10:27:33.511Z,98827.52
2019-03-15T10:32:37.626Z,98851.56
2019-03-15T10:37:41.704Z,98852.06
2019-03-15T10:42:45.804Z,98838.03
2019-03-15T10:47:50.407Z,98838.03
2019-03-15T10:52:54.563Z,98847.99
2019-03-15T10:57:58.658Z,98843.11
2019-03-15T11:03:02.775Z,98829.22
2019-03-15T11:08:06.898Z,98829.22
2019-03-15T11:13:10.909Z,98812.24
2019-03-15T11:18:14.991Z,98821.94
2019-03-15T11:23:19.006Z,98817.00
2019-03-15T11:28:23.021Z,98805.02
2019-03-15T11:33:27.028Z,98795.06
2019-03-15T11:38:46.916Z,98807.45
2019-03-15T11:43:51.106Z,98789.33
2019-03-15T11:48:55.389Z,98777.84
2019-03-15T11:53:59.374Z,98765.75
2019-03-15T11:59:03.712Z,98765.75
2019-03-15T12:04:07.836Z,98743.13
2019-03-15T12:09:11.853Z,98749.87
2019-03-15T12:14:15.901Z,98749.87
2019-03-15T12:19:19.937Z,98744.13
2019-03-15T12:24:24.040Z,98724.23
2019-03-15T12:29:28.103Z,98718.70
2019-03-15T12:34:32.413Z,98706.00
2019-03-15T12:39:36.440Z,98704.52
2019-03-15T12:44:40.472Z,98693.00
2019-03-15T12:49:44.503Z,98684.80
2019-03-15T12:54:48.541Z,98664.08
2019-03-15T12:59:52.546Z,98650.72
2019-03-15T13:04:56.635Z,98637.02
2019-03-15T13:10:00.775Z,98637.55
2019-03-15T13:15:05.465Z,98637.55
2019-03-15T13:20:10.587Z,98609.41
2019-03-15T13:25:14.658Z,98596.47
2019-03-15T13:30:18.889Z,98586.48
2019-03-15T13:35:22.913Z,98582.95
2019-03-15T13:40:27.006Z,98574.80
2019-03-15T13:45:31.439Z,98565.55
2019-03-15T13:50:35.456Z,98564.62
2019-03-15T13:55:39.563Z,98545.96
2019-03-15T14:00:43.614Z,98556.17
2019-03-15T14:05:47.641Z,98556.17
2019-03-15T14:10:51.661Z,98554.21
2019-03-15T14:15:55.753Z,98554.21
2019-03-15T14:20:59.838Z,98522.94
2019-03-15T14:26:03.999Z,98507.16
2019-03-15T14:31:08.176Z,98507.84
2019-03-15T14:36:12.625Z,98507.84
2019-03-15T14:41:17.016Z,98510.38
2019-03-15T14:46:21.630Z,98509.14
2019-03-15T14:51:25.744Z,98509.14
2019-03-15T14:56:29.780Z,98525.34
2019-03-15T15:01:33.957Z,98493.70
2019-03-15T15:06:38.094Z,98503.76
2019-03-15T15:11:42.157Z,98503.76
2019-03-15T15:16:46.300Z,98503.65
2019-03-15T15:21:52.817Z,98452.47
2019-03-15T15:26:56.623Z,98461.23
2019-03-15T15:32:00.669Z,98461.23
2019-03-15T15:37:04.887Z,98443.68
2019-03-15T15:42:09.087Z,98438.72
2019-03-15T15:47:13.115Z,98438.72
2019-03-15T15:52:17.262Z,98426.22
2019-03-15T15:57:21.367Z,98418.77
2019-03-15T16:02:25.551Z,98418.77
2019-03-15T16:07:29.850Z,98403.44
2019-03-15T16:12:34.334Z,98403.44
2019-03-15T16:17:38.438Z,98386.80
2019-03-15T16:22:42.675Z,98383.13
2019-03-15T16:27:46.854Z,98366.32
2019-03-15T16:32:50.987Z,98369.02
2019-03-15T16:37:55.102Z,98368.38
2019-03-15T16:42:59.260Z,98368.38
2019-03-15T16:48:03.425Z,98335.52
2019-03-15T16:53:07.527Z,98335.52
2019-03-15T16:58:11.703Z,98325.44
2019-03-15T17:03:15.836Z,98305.10
2019-03-15T17:08:19.858Z,98316.66
2019-03-15T17:13:24.081Z,98298.94
2019-03-15T17:18:28.141Z,98284.89
2019-03-15T17:23:32.193Z,98315.98
2019-03-15T17:28:36.279Z,98322.14
2019-03-15T17:33:51.709Z,98346.39
2019-03-15T17:38:55.805Z,98372.55
2019-03-15T17:43:59.873Z,98443.77
2019-03-15T17:49:05.879Z,98463.48
2019-03-15T17:54:13.977Z,98431.03
2019-03-15T17:59:32.879Z,98431.03
2019-03-15T18:10:13.078Z,98464.44
2019-03-15T18:15:17.497Z,98468.37
2019-03-15T18:20:22.685Z,98467.33
2019-03-15T18:25:29.372Z,98508.47
2019-03-15T18:30:36.128Z,98508.47
2019-03-15T18:35:40.747Z,98482.31
2019-03-15T18:40:45.112Z,98480.59
2019-03-15T18:45:49.458Z,98460.54
2019-03-15T18:50:53.886Z,98490.36
2019-03-15T18:55:58.223Z,98493.91
2019-03-15T19:01:06.731Z,98498.20
2019-03-15T19:11:30.496Z,98497.70
2019-03-15T19:16:35.847Z,98506.30
2019-03-15T19:21:42.145Z,98528.83
2019-03-15T19:26:52.814Z,98526.50
2019-03-15T19:37:21.912Z,98549.39
2019-03-15T19:42:27.563Z,98571.17
2019-03-15T19:47:34.157Z,98569.28
2019-03-15T19:52:42.310Z,98569.28
2019-03-15T19:58:22.565Z,98579.36
2019-03-15T20:21:39.890Z,98627.98
2019-03-15T20:26:50.879Z,98624.61
2019-03-15T20:43:50.900Z,98654.67
2019-03-15T20:48:55.525Z,98654.67
2019-03-15T20:54:00.015Z,98672.72
2019-03-15T20:59:04.304Z,98672.72
2019-03-15T21:04:08.720Z,98684.19
2019-03-15T21:09:13.222Z,98688.13
2019-03-15T21:14:17.682Z,98699.84
2019-03-15T21:19:22.089Z,98699.12
2019-03-15T21:24:26.318Z,98719.73
2019-03-15T21:29:30.511Z,98717.39
2019-03-15T21:34:34.627Z,98717.39
2019-03-15T21:39:39.068Z,98748.44
2019-03-15T21:44:43.363Z,98748.44
2019-03-15T21:49:47.651Z,98756.44
2019-03-15T21:54:52.137Z,98762.98
2019-03-15T21:59:56.393Z,98755.90
2019-03-15T22:05:00.894Z,98766.44
2019-03-15T22:10:05.624Z,98784.09
2019-03-15T22:15:10.008Z,98795.06
2019-03-15T22:20:14.693Z,98812.02
2019-03-15T22:25:19.007Z,98823.41
2019-03-15T22:30:23.318Z,98843.55
2019-03-15T22:35:27.762Z,98846.29
2019-03-15T22:40:32.033Z,98870.82
2019-03-15T22:45:36.247Z,98877.47
2019-03-15T22:50:40.442Z,98881.50
2019-03-15T22:55:44.775Z,98885.03
2019-03-15T23:00:49.959Z,98884.20
2019-03-15T23:05:54.178Z,98881.22
2019-03-15T23:10:58.533Z,98881.22
2019-03-15T23:16:02.910Z,98880.98
2019-03-15T23:21:07.350Z,98890.14
2019-03-15T23:26:11.738Z,98901.63
2019-03-15T23:31:16.101Z,98917.33
2019-03-15T23:36:20.423Z,98917.33
2019-03-15T23:41:24.789Z,98919.05
2019-03-15T23:46:29.091Z,98934.13
2019-03-15T23:51:33.452Z,98949.27
2019-03-15T23:56:37.925Z,98965.08
